createdAt,value
2023-05-05T00:01:16.545Z,100963.16
2023-05-05T00:03:43.074Z,100968.84
2023-05-05T00:06:09.645Z,100958.50
2023-05-05T00:08:36.351Z,100947.66
2023-05-05T00:11:03.053Z,100953.09
2023-05-05T00:13:29.656Z,100952.03
2023-05-05T00:15:56.131Z,100942.03
2023-05-05T00:18:22.718Z,100942.31
2023-05-05T00:20:49.574Z,100948.63
2023-05-05T00:23:16.862Z,100933.72
2023-05-05T00:25:43.316Z,100934.47
2023-05-05T00:28:09.912Z,100926.59
2023-05-05T00:30:37.451Z,100929.84
2023-05-05T00:33:04.115Z,100930.13
2023-05-05T00:35:30.832Z,100930.19
2023-05-05T00:37:57.372Z,100923.94
2023-05-05T00:40:25.202Z,100924.47
2023-05-05T00:42:51.696Z,100926.16
2023-05-05T00:45:19.299Z,100920.25
2023-05-05T00:47:53.525Z,100926.78
2023-05-05T00:50:26.146Z,100923.53
2023-05-05T00:52:55.390Z,100919.81
2023-05-05T00:55:22.163Z,100922.88
2023-05-05T00:57:49.441Z,100921.25
2023-05-05T01:00:16.906Z,100925.63
2023-05-05T01:02:44.625Z,100918.84
2023-05-05T01:05:13.243Z,100914.94
2023-05-05T01:07:50.681Z,100908.94
2023-05-05T01:10:38.891Z,100912.47
2023-05-05T01:13:05.322Z,100918.72
2023-05-05T01:15:37.702Z,100912.44
2023-05-05T01:18:04.123Z,100921.47
2023-05-05T01:20:40.305Z,100918.75
2023-05-05T01:27:11.817Z,100933.94
2023-05-05T01:29:49.893Z,100928.53
2023-05-05T01:32:21.965Z,100928.00
2023-05-05T01:34:53.881Z,100919.34
2023-05-05T01:37:30.091Z,100927.50
2023-05-05T01:40:01.964Z,100927.50
2023-05-05T01:42:30.598Z,100927.47
2023-05-05T01:44:58.794Z,100922.88
2023-05-05T01:47:27.776Z,100916.31
2023-05-05T01:49:54.556Z,100916.03
2023-05-05T01:52:23.330Z,100920.72
2023-05-05T01:54:51.331Z,100922.56
2023-05-05T01:57:21.054Z,100917.13
2023-05-05T01:59:49.477Z,100913.38
2023-05-05T02:02:16.532Z,100916.94
2023-05-05T02:04:44.919Z,100918.03
2023-05-05T02:07:13.202Z,100921.00
2023-05-05T02:09:42.273Z,100924.59
2023-05-05T02:12:10.195Z,100915.38
2023-05-05T02:14:38.685Z,100913.47
2023-05-05T02:17:05.124Z,100907.25
2023-05-05T02:19:39.766Z,100908.88
2023-05-05T02:22:06.487Z,100903.19
2023-05-05T02:24:33.367Z,100903.19
2023-05-05T02:27:02.550Z,100902.63
2023-05-05T02:29:52.008Z,100900.72
2023-05-05T02:32:23.754Z,100900.00
2023-05-05T02:34:51.771Z,100900.53
2023-05-05T02:37:23.212Z,100895.94
2023-05-05T02:40:02.262Z,100899.25
2023-05-05T02:42:32.143Z,100899.00
2023-05-05T02:45:01.861Z,100893.03
2023-05-05T02:47:36.206Z,100899.63
2023-05-05T02:50:05.161Z,100892.56
2023-05-05T02:52:32.088Z,100895.28
2023-05-05T02:55:03.077Z,100894.53
2023-05-05T02:57:44.480Z,100893.19
2023-05-05T03:00:16.608Z,100895.63
2023-05-05T03:03:06.816Z,100899.69
2023-05-05T03:05:55.781Z,100898.31
2023-05-05T03:08:31.516Z,100898.06
2023-05-05T03:11:24.199Z,100890.50
2023-05-05T03:13:56.318Z,100892.16
2023-05-05T03:16:25.286Z,100892.16
2023-05-05T03:18:52.484Z,100893.81
2023-05-05T03:21:19.061Z,100893.50
2023-05-05T03:23:45.698Z,100899.19
2023-05-05T03:26:12.071Z,100895.13
2023-05-05T03:28:38.486Z,100896.50
2023-05-05T03:31:05.048Z,100900.28
2023-05-05T03:33:31.732Z,100897.34
2023-05-05T03:35:58.216Z,100896.28
2023-05-05T03:38:24.612Z,100902.56
2023-05-05T03:40:51.190Z,100898.22
2023-05-05T03:43:17.725Z,100897.41
2023-05-05T03:45:44.217Z,100894.16
2023-05-05T03:48:10.732Z,100893.91
2023-05-05T03:50:37.692Z,100897.94
2023-05-05T03:53:04.221Z,100893.56
2023-05-05T03:55:30.625Z,100887.88
2023-05-05T03:57:57.329Z,100883.53
2023-05-05T04:00:23.737Z,100890.38
2023-05-05T04:02:50.391Z,100884.91
2023-05-05T04:05:17.326Z,100891.72
2023-05-05T04:07:43.765Z,100895.56
2023-05-05T04:10:10.553Z,100890.66
2023-05-05T04:12:37.142Z,100895.25
2023-05-05T04:15:06.135Z,100895.78
2023-05-05T04:17:32.617Z,100899.59
2023-05-05T04:19:59.093Z,100899.84
2023-05-05T04:22:25.719Z,100899.81
2023-05-05T04:24:52.313Z,100904.41
2023-05-05T04:27:18.922Z,100899.81
2023-05-05T04:29:45.327Z,100901.97
2023-05-05T04:32:12.019Z,100910.09
2023-05-05T04:34:38.572Z,100911.69
2023-05-05T04:37:05.139Z,100909.19
2023-05-05T04:39:31.545Z,100907.53
2023-05-05T04:41:57.917Z,100912.44
2023-05-05T04:44:24.323Z,100912.69
2023-05-05T04:46:50.848Z,100908.28
2023-05-05T04:49:17.317Z,100913.91
2023-05-05T04:51:43.860Z,100904.59
2023-05-05T04:54:10.365Z,100909.97
2023-05-05T04:56:37.080Z,100920.25
2023-05-05T04:59:03.699Z,100908.81
2023-05-05T05:01:30.257Z,100918.31
2023-05-05T05:03:56.751Z,100914.72
2023-05-05T05:06:23.516Z,100913.03
2023-05-05T05:08:49.950Z,100892.69
2023-05-05T05:11:16.337Z,100898.34
2023-05-05T05:13:42.936Z,100896.09
2023-05-05T05:16:09.390Z,100896.25
2023-05-05T05:18:36.128Z,100901.94
2023-05-05T05:21:03.369Z,100897.75
2023-05-05T05:23:29.930Z,100906.03
2023-05-05T05:25:57.100Z,100906.72
2023-05-05T05:28:23.747Z,100900.13
2023-05-05T05:30:50.599Z,100901.69
2023-05-05T05:33:17.131Z,100903.78
2023-05-05T05:35:43.567Z,100900.59
2023-05-05T05:38:09.927Z,100904.84
2023-05-05T05:40:36.442Z,100896.88
2023-05-05T05:43:03.285Z,100899.50
2023-05-05T05:45:29.727Z,100895.34
2023-05-05T05:47:56.289Z,100897.63
2023-05-05T05:50:22.902Z,100902.97
2023-05-05T05:52:49.314Z,100901.19
2023-05-05T05:55:15.821Z,100911.50
2023-05-05T05:57:42.329Z,100911.19
2023-05-05T06:00:09.631Z,100912.34
2023-05-05T06:02:36.408Z,100913.56
2023-05-05T06:05:02.921Z,100908.56
2023-05-05T06:07:29.309Z,100909.50
2023-05-05T06:09:56.859Z,100916.28
2023-05-05T06:12:23.321Z,100911.84
2023-05-05T06:14:49.773Z,100916.91
2023-05-05T06:17:16.359Z,100924.81
2023-05-05T06:19:43.312Z,100912.28
2023-05-05T06:22:09.744Z,100914.19
2023-05-05T06:24:36.239Z,100912.75
2023-05-05T06:27:02.798Z,100911.66
2023-05-05T06:29:29.285Z,100911.13
2023-05-05T06:31:55.962Z,100913.19
2023-05-05T06:34:22.459Z,100909.78
2023-05-05T06:36:48.917Z,100912.78
2023-05-05T06:39:16.190Z,100910.16
2023-05-05T06:41:42.785Z,100901.78
2023-05-05T06:44:10.613Z,100894.09
2023-05-05T06:46:37.184Z,100889.34
2023-05-05T06:49:03.754Z,100886.72
2023-05-05T06:51:31.287Z,100886.56
2023-05-05T06:53:57.737Z,100900.28
2023-05-05T06:56:24.189Z,100896.59
2023-05-05T06:58:50.672Z,100893.88
2023-05-05T07:01:17.219Z,100898.34
2023-05-05T07:03:44.376Z,100898.81
2023-05-05T07:06:11.281Z,100898.47
2023-05-05T07:08:37.716Z,100902.25
2023-05-05T07:11:04.263Z,100906.03
2023-05-05T07:13:33.520Z,100896.06
2023-05-05T07:16:00.248Z,100902.03
2023-05-05T07:18:26.702Z,100899.47
2023-05-05T07:20:53.172Z,100894.78
2023-05-05T07:23:19.712Z,100893.63
2023-05-05T07:25:46.191Z,100894.75
2023-05-05T07:28:12.655Z,100903.50
2023-05-05T07:30:39.087Z,100906.16
2023-05-05T07:33:05.563Z,100905.56
2023-05-05T07:35:32.060Z,100899.94
2023-05-05T07:37:58.548Z,100906.84
2023-05-05T07:40:25.798Z,100900.38
2023-05-05T07:42:52.405Z,100901.56
2023-05-05T07:45:19.212Z,100897.75
2023-05-05T07:47:45.884Z,100898.84
2023-05-05T07:50:12.465Z,100899.25
2023-05-05T07:52:48.331Z,100899.34
2023-05-05T07:55:20.473Z,100898.91
2023-05-05T07:57:47.504Z,100893.56
2023-05-05T08:00:14.428Z,100899.75
2023-05-05T08:02:41.421Z,100901.78
2023-05-05T08:05:08.587Z,100885.34
2023-05-05T08:07:36.516Z,100883.53
2023-05-05T08:10:03.209Z,100883.56
2023-05-05T08:12:29.597Z,100887.41
2023-05-05T08:14:56.002Z,100899.91
2023-05-05T08:17:22.807Z,100889.69
2023-05-05T08:19:52.020Z,100885.91
2023-05-05T08:22:18.632Z,100886.25
2023-05-05T08:24:44.998Z,100888.16
2023-05-05T08:27:11.423Z,100896.00
2023-05-05T08:29:37.833Z,100892.84
2023-05-05T08:32:04.359Z,100888.03
2023-05-05T08:34:30.870Z,100889.63
2023-05-05T08:36:57.466Z,100880.66
2023-05-05T08:39:23.964Z,100889.72
2023-05-05T08:41:50.462Z,100891.38
2023-05-05T08:44:16.993Z,100889.22
2023-05-05T08:46:44.102Z,100894.53
2023-05-05T08:49:16.097Z,100893.72
2023-05-05T08:51:45.576Z,100883.97
2023-05-05T08:54:19.251Z,100880.97
2023-05-05T08:56:47.676Z,100879.47
2023-05-05T08:59:15.608Z,100881.19
2023-05-05T09:01:42.868Z,100886.81
2023-05-05T09:04:09.620Z,100880.84
2023-05-05T09:06:37.100Z,100869.91
2023-05-05T09:09:03.814Z,100876.56
2023-05-05T09:11:32.523Z,100868.59
2023-05-05T09:13:58.926Z,100874.69
2023-05-05T09:16:26.685Z,100865.53
2023-05-05T09:19:02.225Z,100868.38
2023-05-05T09:21:29.274Z,100866.03
2023-05-05T09:24:12.623Z,100864.25
2023-05-05T09:26:42.534Z,100861.06
2023-05-05T09:29:09.302Z,100864.47
2023-05-05T09:31:36.996Z,100857.91
2023-05-05T09:34:14.486Z,100868.88
2023-05-05T09:36:47.955Z,100856.47
2023-05-05T09:39:19.455Z,100852.31
2023-05-05T09:41:46.916Z,100848.19
2023-05-05T09:44:16.791Z,100849.06
2023-05-05T09:46:51.484Z,100838.91
2023-05-05T09:49:23.071Z,100835.16
2023-05-05T09:51:49.572Z,100838.59
2023-05-05T09:54:23.806Z,100838.91
2023-05-05T09:56:51.191Z,100836.56
2023-05-05T09:59:18.484Z,100830.31
2023-05-05T10:01:45.030Z,100830.78
2023-05-05T10:04:28.696Z,100829.16
2023-05-05T10:06:56.998Z,100821.41
2023-05-05T10:09:24.552Z,100819.31
2023-05-05T10:11:51.948Z,100821.50
2023-05-05T10:14:19.776Z,100821.50
2023-05-05T10:16:51.180Z,100814.81
2023-05-05T10:19:22.984Z,100817.16
2023-05-05T10:21:51.805Z,100819.22
2023-05-05T10:24:50.802Z,100814.09
2023-05-05T10:27:19.055Z,100811.16
2023-05-05T10:30:02.293Z,100812.72
2023-05-05T10:32:54.342Z,100808.88
2023-05-05T10:35:24.552Z,100807.31
2023-05-05T10:37:52.175Z,100799.63
2023-05-05T10:40:22.355Z,100795.78
2023-05-05T10:42:50.785Z,100795.88
2023-05-05T10:45:17.130Z,100797.25
2023-05-05T10:47:46.518Z,100790.59
2023-05-05T10:50:39.019Z,100795.22
2023-05-05T10:53:31.684Z,100786.22
2023-05-05T10:56:10.715Z,100787.81
2023-05-05T10:58:55.445Z,100794.25
2023-05-05T11:01:33.484Z,100785.28
2023-05-05T11:04:24.716Z,100777.31
2023-05-05T11:07:24.394Z,100773.31
2023-05-05T11:10:05.265Z,100772.13
2023-05-05T11:12:35.498Z,100770.88
2023-05-05T11:15:27.828Z,100776.94
2023-05-05T11:17:55.634Z,100763.41
2023-05-05T11:20:37.572Z,100773.78
2023-05-05T11:23:04.287Z,100764.97
2023-05-05T11:25:37.561Z,100761.00
2023-05-05T11:28:16.390Z,100763.75
2023-05-05T11:30:54.600Z,100759.44
2023-05-05T11:33:30.532Z,100755.25
2023-05-05T11:36:06.124Z,100762.03
2023-05-05T11:38:35.996Z,100743.69
2023-05-05T11:41:10.712Z,100745.91
2023-05-05T11:43:37.238Z,100750.72
2023-05-05T11:46:14.293Z,100748.22
2023-05-05T11:48:48.138Z,100752.94
2023-05-05T11:51:16.315Z,100755.06
2023-05-05T11:53:43.883Z,100747.44
2023-05-05T11:56:11.856Z,100751.38
2023-05-05T11:58:38.592Z,100748.94
2023-05-05T12:01:06.909Z,100742.69
2023-05-05T12:03:37.801Z,100741.19
2023-05-05T12:06:05.515Z,100739.41
2023-05-05T12:08:39.157Z,100744.97
2023-05-05T12:11:10.624Z,100729.63
2023-05-05T12:13:37.346Z,100730.41
2023-05-05T12:16:22.360Z,100731.97
2023-05-05T12:19:03.754Z,100732.56
2023-05-05T12:21:30.533Z,100734.41
2023-05-05T12:23:57.176Z,100731.41
2023-05-05T12:26:31.870Z,100733.28
2023-05-05T12:29:00.028Z,100726.72
2023-05-05T12:31:36.304Z,100714.78
2023-05-05T12:34:04.268Z,100720.41
2023-05-05T12:36:33.542Z,100723.47
2023-05-05T12:39:00.422Z,100718.25
2023-05-05T12:41:27.096Z,100720.69
2023-05-05T12:44:00.943Z,100725.00
2023-05-05T12:46:29.691Z,100706.63
2023-05-05T12:49:07.258Z,100709.38
2023-05-05T12:51:37.921Z,100706.22
2023-05-05T12:54:12.235Z,100707.56
2023-05-05T12:56:42.902Z,100706.59
2023-05-05T12:59:29.991Z,100696.91
2023-05-05T13:01:58.411Z,100704.09
2023-05-05T13:04:28.058Z,100707.97
2023-05-05T13:07:13.765Z,100698.25
2023-05-05T13:09:40.371Z,100698.59
2023-05-05T13:12:08.567Z,100698.25
2023-05-05T13:14:36.285Z,100702.78
2023-05-05T13:17:02.795Z,100698.91
2023-05-05T13:19:29.402Z,100691.22
2023-05-05T13:21:57.297Z,100686.88
2023-05-05T13:24:38.175Z,100673.34
2023-05-05T13:27:09.277Z,100672.34
2023-05-05T13:29:35.878Z,100671.38
2023-05-05T13:32:02.434Z,100672.69
2023-05-05T13:34:29.073Z,100669.22
2023-05-05T13:36:55.770Z,100654.84
2023-05-05T13:39:22.261Z,100664.97
2023-05-05T13:41:48.762Z,100661.56
2023-05-05T13:44:15.936Z,100660.72
2023-05-05T13:46:42.930Z,100650.78
2023-05-05T13:49:09.506Z,100655.16
2023-05-05T13:51:36.892Z,100646.03
2023-05-05T13:54:03.986Z,100642.78
2023-05-05T13:56:30.712Z,100633.22
2023-05-05T13:58:57.436Z,100632.69
2023-05-05T14:01:24.008Z,100630.78
2023-05-05T14:03:50.664Z,100631.56
2023-05-05T14:06:17.163Z,100625.56
2023-05-05T14:08:43.734Z,100615.78
2023-05-05T14:11:10.157Z,100617.03
2023-05-05T14:13:36.667Z,100613.03
2023-05-05T14:16:03.192Z,100607.31
2023-05-05T14:18:29.676Z,100608.75
2023-05-05T14:23:22.559Z,100596.69
2023-05-05T14:25:49.073Z,100593.13
2023-05-05T14:28:15.493Z,100589.16
2023-05-05T14:30:42.064Z,100587.19
2023-05-05T14:33:08.532Z,100584.84
2023-05-05T14:35:35.095Z,100588.78
2023-05-05T14:38:01.572Z,100581.19
2023-05-05T14:40:29.501Z,100587.94
2023-05-05T14:42:56.154Z,100590.91
2023-05-05T14:45:22.633Z,100583.38
2023-05-05T14:47:49.160Z,100583.69
2023-05-05T14:50:15.675Z,100576.47
2023-05-05T14:52:44.351Z,100583.75
2023-05-05T14:55:11.265Z,100583.25
2023-05-05T14:57:38.631Z,100574.63
2023-05-05T15:00:07.784Z,100572.97
2023-05-05T15:02:34.314Z,100582.00
2023-05-05T15:05:00.809Z,100575.94
2023-05-05T15:07:30.987Z,100570.66
2023-05-05T15:09:57.619Z,100567.66
2023-05-05T15:12:25.866Z,100568.81
2023-05-05T15:14:52.409Z,100562.06
2023-05-05T15:17:18.841Z,100560.81
2023-05-05T15:19:45.347Z,100550.53
2023-05-05T15:22:11.999Z,100559.66
2023-05-05T15:24:38.429Z,100545.00
2023-05-05T15:27:04.843Z,100541.88
2023-05-05T15:29:31.260Z,100542.81
2023-05-05T15:31:57.892Z,100538.00
2023-05-05T15:34:24.455Z,100538.03
2023-05-05T15:36:51.525Z,100542.34
2023-05-05T15:39:17.998Z,100535.75
2023-05-05T15:41:44.422Z,100534.22
2023-05-05T15:44:12.533Z,100535.16
2023-05-05T15:46:39.726Z,100531.59
2023-05-05T15:49:06.325Z,100536.22
2023-05-05T15:51:32.733Z,100534.94
2023-05-05T15:53:59.588Z,100544.06
2023-05-05T15:56:27.491Z,100533.28
2023-05-05T15:58:54.173Z,100530.44
2023-05-05T16:01:20.952Z,100533.88
2023-05-05T16:03:47.482Z,100531.38
2023-05-05T16:06:14.004Z,100526.31
2023-05-05T16:08:40.468Z,100530.22
2023-05-05T16:11:07.018Z,100529.22
2023-05-05T16:13:33.480Z,100534.31
2023-05-05T16:15:59.959Z,100528.28
2023-05-05T16:18:26.643Z,100526.81
2023-05-05T16:20:53.058Z,100526.09
2023-05-05T16:23:19.435Z,100522.03
2023-05-05T16:25:45.916Z,100526.75
2023-05-05T16:28:12.307Z,100523.13
2023-05-05T16:30:39.901Z,100521.66
2023-05-05T16:33:06.983Z,100516.13
2023-05-05T16:35:33.606Z,100511.69
2023-05-05T16:38:00.151Z,100513.31
2023-05-05T16:40:26.677Z,100506.88
2023-05-05T16:42:53.148Z,100510.78
2023-05-05T16:45:19.541Z,100503.47
2023-05-05T16:47:45.961Z,100505.38
2023-05-05T16:50:12.498Z,100505.09
2023-05-05T16:52:38.922Z,100501.75
2023-05-05T16:55:05.565Z,100498.41
2023-05-05T16:57:31.981Z,100487.63
2023-05-05T16:59:58.814Z,100494.97
2023-05-05T17:02:25.318Z,100492.13
2023-05-05T17:04:51.749Z,100486.81
2023-05-05T17:07:18.229Z,100476.19
2023-05-05T17:09:44.647Z,100478.31
2023-05-05T17:12:11.204Z,100478.31
2023-05-05T17:14:37.618Z,100473.81
2023-05-05T17:17:04.031Z,100476.22
2023-05-05T17:19:30.581Z,100468.00
2023-05-05T17:21:57.195Z,100463.84
2023-05-05T17:24:24.104Z,100466.63
2023-05-05T17:26:50.734Z,100466.19
2023-05-05T17:29:21.585Z,100458.19
2023-05-05T17:31:48.100Z,100462.34
2023-05-05T17:34:14.539Z,100456.66
2023-05-05T17:36:41.183Z,100458.22
2023-05-05T17:39:07.688Z,100462.19
2023-05-05T17:41:34.214Z,100463.13
2023-05-05T17:44:00.814Z,100463.13
2023-05-05T17:46:27.794Z,100465.03
2023-05-05T17:48:54.581Z,100463.59
2023-05-05T17:51:21.013Z,100461.66
2023-05-05T17:53:47.400Z,100456.06
2023-05-05T17:56:13.798Z,100461.03
2023-05-05T17:58:40.192Z,100470.38
2023-05-05T18:01:07.033Z,100475.47
2023-05-05T18:03:33.876Z,100475.53
2023-05-05T18:06:01.214Z,100484.03
2023-05-05T18:08:27.602Z,100490.84
2023-05-05T18:10:54.353Z,100506.41
2023-05-05T18:13:21.454Z,100512.34
2023-05-05T18:15:47.944Z,100517.84
2023-05-05T18:18:14.661Z,100520.75
2023-05-05T18:20:41.143Z,100527.13
2023-05-05T18:23:07.789Z,100534.28
2023-05-05T18:25:34.193Z,100515.59
2023-05-05T18:28:00.667Z,100506.13
2023-05-05T18:30:27.085Z,100526.28
2023-05-05T18:32:53.554Z,100533.38
2023-05-05T18:35:20.083Z,100525.84
2023-05-05T18:37:46.537Z,100521.75
2023-05-05T18:40:13.354Z,100533.41
2023-05-05T18:42:39.763Z,100539.81
2023-05-05T18:45:07.741Z,100538.66
2023-05-05T18:47:36.761Z,100539.91
2023-05-05T18:50:03.515Z,100538.66
2023-05-05T18:52:30.049Z,100546.47
2023-05-05T18:54:56.426Z,100550.22
2023-05-05T18:57:22.912Z,100536.78
2023-05-05T18:59:49.347Z,100538.81
2023-05-05T19:02:17.126Z,100537.22
2023-05-05T19:04:43.882Z,100544.25
2023-05-05T19:07:14.518Z,100545.41
2023-05-05T19:09:47.520Z,100544.59
2023-05-05T19:12:13.956Z,100543.78
2023-05-05T19:14:40.533Z,100551.38
2023-05-05T19:17:06.990Z,100562.28
2023-05-05T19:19:33.494Z,100562.78
2023-05-05T19:22:02.177Z,100572.97
2023-05-05T19:24:30.179Z,100582.25
2023-05-05T19:26:56.600Z,100587.66
2023-05-05T19:29:23.105Z,100585.94
2023-05-05T19:31:49.597Z,100590.31
2023-05-05T19:34:16.051Z,100589.41
2023-05-05T19:36:42.545Z,100595.66
2023-05-05T19:39:08.996Z,100587.59
2023-05-05T19:41:35.559Z,100584.84
2023-05-05T19:44:02.026Z,100579.56
2023-05-05T19:46:28.468Z,100575.25
2023-05-05T19:48:54.934Z,100574.63
2023-05-05T19:51:21.474Z,100570.88
2023-05-05T19:53:48.067Z,100568.31
2023-05-05T19:56:14.464Z,100567.47
2023-05-05T19:58:58.878Z,100561.16
2023-05-05T20:01:25.771Z,100571.81
2023-05-05T20:03:54.802Z,100574.16
2023-05-05T20:06:21.788Z,100580.34
2023-05-05T20:08:48.309Z,100588.69
2023-05-05T20:11:19.607Z,100589.03
2023-05-05T20:13:46.050Z,100586.47
2023-05-05T20:16:12.734Z,100580.38
2023-05-05T20:18:40.172Z,100578.72
2023-05-05T20:21:06.925Z,100569.25
2023-05-05T20:23:33.648Z,100565.03
2023-05-05T20:26:00.674Z,100553.19
2023-05-05T20:28:27.291Z,100555.81
2023-05-05T20:30:54.799Z,100567.25
2023-05-05T20:33:21.337Z,100594.38
2023-05-05T20:35:47.802Z,100608.75
2023-05-05T20:38:14.234Z,100610.66
2023-05-05T20:40:41.448Z,100618.28
2023-05-05T20:43:07.956Z,100623.91
2023-05-05T20:45:34.830Z,100616.66
2023-05-05T20:48:01.695Z,100620.28
2023-05-05T20:50:28.202Z,100618.13
2023-05-05T20:52:55.020Z,100627.91
2023-05-05T20:55:21.682Z,100628.13
2023-05-05T20:57:48.110Z,100624.38
2023-05-05T21:00:14.979Z,100635.19
2023-05-05T21:02:42.170Z,100623.97
2023-05-05T21:05:08.853Z,100628.13
2023-05-05T21:07:35.442Z,100630.06
2023-05-05T21:10:03.224Z,100629.09
2023-05-05T21:12:30.404Z,100629.88
2023-05-05T21:14:58.726Z,100632.22
2023-05-05T21:17:26.113Z,100624.47
2023-05-05T21:19:53.044Z,100626.25
2023-05-05T21:22:20.426Z,100632.69
2023-05-05T21:24:46.865Z,100625.78
2023-05-05T21:27:13.739Z,100604.63
2023-05-05T21:29:40.831Z,100608.19
2023-05-05T21:32:08.733Z,100624.00
2023-05-05T21:34:35.880Z,100628.34
2023-05-05T21:37:02.538Z,100624.81
2023-05-05T21:39:30.629Z,100620.63
2023-05-05T21:41:57.109Z,100623.88
2023-05-05T21:44:25.433Z,100622.44
2023-05-05T21:46:55.660Z,100628.72
2023-05-05T21:49:22.284Z,100613.72
2023-05-05T21:51:48.850Z,100612.44
2023-05-05T21:54:15.769Z,100611.97
2023-05-05T21:56:42.278Z,100609.56
2023-05-05T21:59:08.697Z,100596.16
2023-05-05T22:01:35.162Z,100592.78
2023-05-05T22:04:01.700Z,100597.66
2023-05-05T22:06:28.200Z,100602.97
2023-05-05T22:08:54.731Z,100613.44
2023-05-05T22:11:21.478Z,100603.94
2023-05-05T22:13:47.947Z,100606.34
2023-05-05T22:16:18.837Z,100604.41
2023-05-05T22:18:45.935Z,100602.66
2023-05-05T22:21:12.357Z,100600.28
2023-05-05T22:23:41.942Z,100600.78
2023-05-05T22:26:08.981Z,100607.53
2023-05-05T22:28:35.937Z,100609.31
2023-05-05T22:31:02.586Z,100613.19
2023-05-05T22:33:29.080Z,100607.22
2023-05-05T22:35:55.771Z,100614.84
2023-05-05T22:38:22.274Z,100612.91
2023-05-05T22:40:49.595Z,100612.91
2023-05-05T22:43:16.072Z,100608.91
2023-05-05T22:45:43.351Z,100608.28
2023-05-05T22:48:10.105Z,100602.47
2023-05-05T22:50:36.836Z,100607.78
2023-05-05T22:53:03.563Z,100620.22
2023-05-05T22:55:30.084Z,100611.38
2023-05-05T22:57:56.508Z,100618.63
2023-05-05T23:00:24.348Z,100608.47
2023-05-05T23:02:50.978Z,100610.28
2023-05-05T23:05:17.518Z,100609.97
2023-05-05T23:07:43.976Z,100615.63
2023-05-05T23:10:10.742Z,100609.97
2023-05-05T23:12:37.188Z,100606.25
2023-05-05T23:15:04.592Z,100614.16
2023-05-05T23:17:34.042Z,100615.81
2023-05-05T23:20:00.599Z,100614.81
2023-05-05T23:22:26.990Z,100605.34
2023-05-05T23:24:53.357Z,100612.44
2023-05-05T23:27:19.797Z,100614.34
2023-05-05T23:29:46.220Z,100610.81
2023-05-05T23:32:12.661Z,100613.56
2023-05-05T23:34:39.060Z,100612.75
2023-05-05T23:37:06.368Z,100608.88
2023-05-05T23:39:34.404Z,100606.63
2023-05-05T23:42:00.821Z,100613.50
2023-05-05T23:44:27.673Z,100609.34
2023-05-05T23:46:54.400Z,100610.16
2023-05-05T23:49:20.886Z,100610.13
2023-05-05T23:51:47.277Z,100614.31
2023-05-05T23:54:13.657Z,100609.69
2023-05-05T23:56:41.031Z,100606.16
2023-05-05T23:59:07.465Z,100598.91
